x

Sentry Shoal (46131) Wave Buoy

2:00 - Sun 24th May 2015 All times are PDT. -7 hours from GMT.

  • Sig Wave height 1.0ft
  • Peak Period 3s
  • Wind
    2mph
  • Sea Temp 60°f
  • Aire Temp 59°f
  • Sea Pressure 1020.6mb
  • Sentry Shoal
  • Sentry Shoal

More Historic Weather Station data

Upgrade to MSW Pro to gain access to the past 30 days of data for over 8000 Wavebouys and Weather Stations around the globe.

Join Pro

Comparision Forecast

View Surf forecast
   
dom 05/24 2:00 1ft 3s 2
mph
1020.6mb 60f 59f
1:00 1ft 3s 4 7 mph 1020.7mb 60f 60f
12:00 1ft 3s 9 11 mph 1020.2mb 60f 60f
sáb 05/23 11:00 1ft 2s 4 7 mph 1020.1mb 60f 60f
10:00 1ft 7s 9 11 mph 1020.2mb 60f 60f
9:00 0.7ft 3s 9 11 mph 1019.8mb 61f 61f
8:00 0.7ft 3s 7 9 mph 1019.5mb 62f 61f
7:00 0.3ft 3s 4
mph
1019.4mb 62f 61f
6:00 0.3ft 3s 4 7 mph 1019.7mb 62f 62f
5:00 0.3ft 4s 4 7 mph 1020.3mb 62f 61f
4:00 0.3ft 4s 7
mph
1020.9mb 62f 61f
3:00 0.3ft 4s 7
mph
1021.4mb 62f 60f
2:00 0.3ft 3s 4 7 mph 1021.6mb 61f 60f
1:00 0.3ft 3s 2 4 mph 1021.7mb 62f 59f
12:00 0.3ft 2s 2 4 mph 1021.5mb 62f 58f
11:00 0.3ft 2s 4 7 mph 1021.1mb 61f 57f
10:00 0.7ft 2s 7
mph
1020.9mb 60f 56f
9:00 1ft 2s 9 11 mph 1020.7mb 60f 55f
8:00 1ft 2s 11 13 mph 1020.4mb 60f 55f
7:00 1ft 2s 11
mph
1019.9mb 60f 55f
6:00 1ft 2s 11 13 mph 1019.3mb 60f 55f
5:00 1ft 2s 13 16 mph 1019.2mb 60f 55f
4:00 1ft 2s 11 13 mph 1018.9mb 60f 56f
3:00 1ft 2s 13 16 mph 1018.6mb 60f 57f
2:00 0.7ft 4s 11 13 mph 1017.8mb 60f 58f
1:00 0.7ft 2s 9
mph
1017.2mb 60f 59f
12:00 0.3ft 2s 9 11 mph 1016.7mb 61f 60f
vie 05/22 11:00 0.3ft 3s 2 4 mph 1016.2mb 61f 61f
10:00 0.7ft 2s 2 4 mph 1015.4mb 61f 61f
9:00 0.3ft 2s 4 11 mph 1014.9mb 61f 62f
8:00 0.3ft 2s 9 11 mph 1014.2mb 61f 63f
7:00 0.3ft 2s 7 9 mph 1013.7mb 62f 63f
6:00 0.3ft 2s 11
mph
1013.1mb 61f 64f
5:00  -  3s 4
mph
1013.2mb 62f 65f
4:00  -  3s 2 4 mph 1013.3mb 62f 63f
3:00 0.3ft 2s 4
mph
1013.5mb 61f 62f
2:00 0.3ft 2s 4 7 mph 1013.7mb 60f 62f
1:00 0.3ft 2s 7
mph
1014.1mb 59f 60f
12:00 0.3ft 2s 9
mph
1014.2mb 59f 59f
11:00 0.7ft 2s 9 11 mph 1014mb 58f 58f
10:00 1ft 3s 11 13 mph 1013.9mb 58f 56f
9:00 1.3ft 2s 13 16 mph 1013.9mb 57f 56f
8:00 1.3ft 3s 13 16 mph 1013.8mb 57f 55f
7:00 1.6ft 3s 16 20 mph 1013.3mb 57f 55f
6:00 1.3ft 3s 18 22 mph 1013.1mb 57f 55f
5:00 1ft 3s 16 20 mph 1013mb 57f 55f
4:00 1.3ft 3s 16 20 mph 1012.7mb 56f 55f
3:00 1.3ft 3s 16 20 mph 1012.3mb 57f 56f
2:00 1.6ft 3s 18 20 mph 1011.9mb 58f 56f
1:00 1.6ft 3s 16 20 mph 1011.4mb 59f 58f
12:00 1.6ft 3s 18 22 mph 1010.6mb 59f 59f
jue 05/21 11:00 1.3ft 3s 18 22 mph 1009.7mb 60f 60f
10:00 1.6ft 2s 20 22 mph 1009.1mb 60f 62f
9:00 1.3ft 2s 18 22 mph 1008.7mb 60f 64f
8:00 1ft 2s 16 18 mph 1008.4mb 61f 66f
7:00 0.3ft 2s 13 18 mph 1008.2mb 63f 68f
6:00 0.3ft 4s 9
mph
1008.3mb 64f 67f
5:00 0.3ft 4s 9
mph
1008.8mb 63f 67f
4:00 0.3ft 4s 4 7 mph 1009.4mb 64f 67f
3:00 0.3ft 4s 4
mph
1010.1mb 63f 65f
2:00  -  4s 4
mph
1010.6mb 61f 65f
1:00 0.3ft 2s 7
mph
1011mb 60f 64f
12:00 0.3ft 2s 9
mph
1011.4mb 59f 62f
11:00 0.7ft 2s 11
mph
1011.5mb 59f 60f
10:00 1ft 3s 9 11 mph 1012mb 59f 58f
9:00 1.3ft 3s 11 13 mph 1012.2mb 58f 56f
8:00 1.6ft 3s 13 18 mph 1012.1mb 59f 56f
7:00 1.6ft 3s 16 20 mph 1012mb 59f 55f
6:00 1.6ft 3s 20 22 mph 1011.7mb 59f 55f
5:00 1.6ft 3s 18
mph
1011.8mb 59f 56f
4:00 1.3ft 3s 18 22 mph 1011.9mb 59f 57f
3:00 1.3ft 3s 18 20 mph 1011.7mb 60f 58f
2:00 1.3ft 3s 16 18 mph 1011.5mb 59f 59f
12:00 1ft 3s 16 18 mph 1011.6mb 60f 62f
mié 05/20 11:00 0.7ft 2s 11 16 mph 1011.4mb 60f 62f
10:00 0.3ft 2s 13 16 mph 1011.2mb 61f 64f
9:00  -  4s 11 16 mph 1010.8mb 62f 66f
8:00  -  3s 7 9 mph 1010.8mb 65f 67f
7:00  -  3s 4
mph
1010.7mb 65f 69f
6:00  -  2s 2
mph
1011.1mb 65f 71f
5:00 0.3ft 2s 7
mph
1011.8mb 65f 68f
4:00 0.3ft 3s 4
mph
1012.7mb 65f 66f
3:00 0.3ft 2s 4
mph
1013.7mb 64f 65f
2:00 0.3ft 4s 2 4 mph 1014.6mb 63f 63f
1:00 0.3ft 4s 4
mph
1015.4mb 62f 61f
12:00 0.3ft 2s 4
mph
1016mb 62f 60f
11:00 0.7ft 2s 7 9 mph 1016.3mb 61f 59f